Airfield :
LOGIN :

Register | Disclaimer

   EN    FR    IT 

 










Legend :    VFR   Marginal VFR   IFR   Intensive IFR   Very Intensive IFR
Visi :
Ceiling :
>= 8 km
>= 3000ft
5 to 8 km
1000 to 3000 ft
1500m to 5 km
500 to 1000 ft
800 to 1500m
200 to 500 ft
< 800m
< 200 ft
Symbols :   Thunderstorms  Fog  Heavy snow  Heavy precipitations  Wind > 20 kt
SIGMETs :     Misc.  Thunderstorms  Icing  Turbulence  Mountain Waves  Volcanic Ashes






- Airport Elevation : 1325 ft
- IATA code : EBU


LFMH - St-Etienne Boutheon

CURRENT METAR :
  • 181130Z AUTO VRB03KT CAVOK 06/01 Q1028 NOSIG

EXPIRED METARs :
  • 181100Z AUTO 00000KT 9999 FEW040 08/01 Q1029 NOSIG
  • 181030Z AUTO VRB02KT 9999 FEW040 06/02 Q1029 NOSIG
  • 181000Z AUTO 00000KT CAVOK 05/03 Q1030 NOSIG
  • 180930Z AUTO VRB01KT 9999 SCT042 03/02 Q1030 NOSIG
  • 180900Z AUTO 09001KT 9999 BKN043 01/01 Q1030 NOSIG
  • 180830Z AUTO VRB02KT 9999 OVC040 01/00 Q1030 NOSIG

TAF TAF LFMH
Valid from the 18 at 09:00 until the 19 at 09:00 UTC


180800Z 1809/1909 15005KT 9999 BKN040
BECMG 1809/1811 VRB02KT SCT040
BECMG 1812/1814 34005KT
TEMPO 1815/1821 NSC
BECMG 1821/1824 OVC012
BECMG 1900/1902 OVC006
PROB30
TEMPO 1903/1909 32012KT -SN OVC003
ATIS : +33 4 77 36 17 51



MET'MAP, your aeronautical weather chart ! - Copyright ORBIFLY December 2007 - Disclaimer

ORBIFLY MET'MAP TEAM :

Programming & Development : Alexandra Zaïnal
Concept & original design : Baudouin d'Aumeries
Assistance for programming : Marc-Olivier Méhu
Technical & hardware support : Manuel Goepfert

Contact : metmap@orbifly.com




SOURCES & CREDITS :

   NOAA